createdAt,value
2022-09-07T00:02:06.750Z,4.20
2022-09-07T00:04:34.617Z,3.75
2022-09-07T00:07:02.675Z,4.13
2022-09-07T00:09:30.553Z,4.68
2022-09-07T00:11:59.322Z,4.10
2022-09-07T00:14:29.862Z,4.22
2022-09-07T00:17:02.954Z,4.50
2022-09-07T00:19:31.239Z,4.07
2022-09-07T00:21:59.171Z,4.07
2022-09-07T00:24:27.639Z,4.13
2022-09-07T00:26:56.733Z,4.47
2022-09-07T00:29:24.930Z,4.40
2022-09-07T00:31:55.048Z,4.57
2022-09-07T00:34:24.778Z,4.78
2022-09-07T00:36:53.493Z,5.07
2022-09-07T00:39:22.302Z,5.28
2022-09-07T00:41:50.944Z,4.82
2022-09-07T00:44:56.437Z,2.80
2022-09-07T00:47:28.622Z,2.47
2022-09-07T00:49:59.758Z,2.53
2022-09-07T00:52:28.846Z,2.40
2022-09-07T00:54:58.619Z,2.60
2022-09-07T00:57:28.280Z,2.45
2022-09-07T00:59:57.869Z,2.40
2022-09-07T01:02:30.053Z,2.75
2022-09-07T01:05:09.399Z,2.35
2022-09-07T01:07:37.970Z,2.83
2022-09-07T01:10:06.818Z,3.27
2022-09-07T01:12:34.466Z,2.70
2022-09-07T01:15:02.767Z,2.83
2022-09-07T01:17:42.685Z,3.00
2022-09-07T01:20:33.845Z,2.80
2022-09-07T01:23:25.482Z,3.05
2022-09-07T01:26:05.153Z,2.60
2022-09-07T01:28:37.958Z,2.35
2022-09-07T01:31:13.186Z,2.28
2022-09-07T01:33:51.457Z,2.03
2022-09-07T01:36:25.307Z,2.00
2022-09-07T01:38:56.102Z,1.88
2022-09-07T01:41:29.207Z,1.63
2022-09-07T01:44:02.988Z,1.80
2022-09-07T01:46:33.686Z,2.17
2022-09-07T01:49:06.326Z,2.15
2022-09-07T01:51:36.543Z,2.40
2022-09-07T01:54:09.202Z,2.67
2022-09-07T01:56:43.725Z,2.50
2022-09-07T01:59:18.326Z,2.40
2022-09-07T02:01:50.511Z,2.65
2022-09-07T02:04:22.031Z,2.40
2022-09-07T02:06:53.910Z,2.47
2022-09-07T02:09:29.133Z,2.40
2022-09-07T02:11:57.083Z,2.47
2022-09-07T02:14:32.551Z,2.50
2022-09-07T02:17:05.415Z,2.57
2022-09-07T02:19:35.357Z,2.60
2022-09-07T02:22:10.102Z,2.50
2022-09-07T02:24:41.328Z,2.60
2022-09-07T02:27:12.243Z,2.58
2022-09-07T02:29:44.510Z,2.80
2022-09-07T02:32:12.699Z,3.08
2022-09-07T02:34:41.510Z,2.60
2022-09-07T02:37:10.675Z,2.70
2022-09-07T02:39:39.172Z,2.95
2022-09-07T02:42:07.668Z,2.92
2022-09-07T02:44:38.919Z,2.90
2022-09-07T02:47:15.329Z,2.95
2022-09-07T02:49:57.563Z,3.00
2022-09-07T02:52:34.972Z,2.97
2022-09-07T02:55:11.726Z,2.95
2022-09-07T02:57:47.582Z,3.13
2022-09-07T03:00:18.106Z,3.15
2022-09-07T03:02:53.305Z,3.20
2022-09-07T03:05:24.333Z,3.10
2022-09-07T03:07:56.682Z,2.85
2022-09-07T03:10:25.505Z,3.00
2022-09-07T03:12:54.069Z,2.83
2022-09-07T03:15:24.010Z,3.00
2022-09-07T03:17:54.950Z,2.67
2022-09-07T03:20:24.500Z,2.30
2022-09-07T03:22:53.336Z,2.40
2022-09-07T03:25:23.223Z,2.78
2022-09-07T03:27:50.923Z,2.43
2022-09-07T03:30:18.719Z,2.65
2022-09-07T03:32:47.534Z,2.67
2022-09-07T03:35:17.952Z,2.72
2022-09-07T03:37:46.109Z,2.60
2022-09-07T03:40:15.981Z,3.10
2022-09-07T03:42:44.224Z,2.97
2022-09-07T03:45:12.405Z,3.47
2022-09-07T03:47:41.506Z,3.30
2022-09-07T03:50:10.489Z,3.10
2022-09-07T03:52:40.789Z,3.08
2022-09-07T03:55:09.495Z,3.40
2022-09-07T03:57:37.440Z,2.60
2022-09-07T04:00:06.433Z,2.75
2022-09-07T04:02:34.785Z,3.20
2022-09-07T04:05:03.215Z,2.90
2022-09-07T04:07:31.577Z,2.80
2022-09-07T04:10:01.024Z,3.10
2022-09-07T04:12:29.929Z,4.10
2022-09-07T04:14:58.495Z,4.40
2022-09-07T04:17:26.240Z,4.68
2022-09-07T04:19:54.469Z,4.63
2022-09-07T04:22:23.285Z,5.20
2022-09-07T04:24:51.537Z,4.70
2022-09-07T04:27:20.693Z,4.55
2022-09-07T04:29:50.159Z,4.23
2022-09-07T04:32:18.718Z,5.40
2022-09-07T04:34:47.623Z,5.60
2022-09-07T04:37:15.409Z,5.85
2022-09-07T04:39:43.253Z,5.68
2022-09-07T04:42:11.120Z,5.15
2022-09-07T04:44:43.318Z,5.53
2022-09-07T04:47:12.009Z,5.43
2022-09-07T04:49:41.131Z,5.07
2022-09-07T04:52:09.602Z,5.20
2022-09-07T04:54:41.632Z,4.38
2022-09-07T04:57:10.957Z,4.65
2022-09-07T04:59:40.226Z,4.50
2022-09-07T05:02:09.866Z,5.60
2022-09-07T05:04:38.645Z,5.85
2022-09-07T05:07:06.595Z,6.43
2022-09-07T05:09:35.370Z,6.32
2022-09-07T05:12:05.298Z,6.30
2022-09-07T05:14:35.080Z,6.38
2022-09-07T05:17:07.678Z,6.72
2022-09-07T05:19:35.320Z,5.97
2022-09-07T05:22:05.425Z,6.57
2022-09-07T05:24:36.856Z,6.20
2022-09-07T05:27:04.629Z,6.28
2022-09-07T05:32:21.628Z,6.57
2022-09-07T05:34:52.969Z,6.68
2022-09-07T05:37:20.956Z,6.88
2022-09-07T05:39:51.572Z,6.72
2022-09-07T05:42:20.134Z,6.78
2022-09-07T05:44:48.368Z,6.88
2022-09-07T05:47:16.291Z,6.95
2022-09-07T05:49:48.789Z,7.10
2022-09-07T05:52:16.848Z,7.22
2022-09-07T05:54:47.325Z,7.15
2022-09-07T05:57:15.366Z,6.80
2022-09-07T05:59:43.120Z,6.82
2022-09-07T06:02:12.320Z,6.95
2022-09-07T06:04:40.216Z,7.55
2022-09-07T06:07:21.554Z,7.63
2022-09-07T06:12:39.652Z,8.07
2022-09-07T06:15:09.515Z,7.80
2022-09-07T06:17:37.832Z,7.38
2022-09-07T06:20:07.889Z,7.32
2022-09-07T06:23:39.832Z,7.30
2022-09-07T06:26:09.967Z,7.18
2022-09-07T06:28:39.461Z,7.45
2022-09-07T06:31:08.726Z,7.05
2022-09-07T06:33:38.030Z,7.40
2022-09-07T06:36:08.123Z,7.15
2022-09-07T06:38:38.151Z,6.85
2022-09-07T06:43:59.634Z,6.88
2022-09-07T06:49:16.008Z,6.50
2022-09-07T06:51:44.461Z,6.10
2022-09-07T06:57:09.325Z,6.47
2022-09-07T06:59:37.706Z,5.80
2022-09-07T07:02:05.835Z,5.45
2022-09-07T07:04:39.357Z,4.95
2022-09-07T07:07:11.147Z,5.13
2022-09-07T07:09:39.401Z,4.65
2022-09-07T07:12:08.854Z,4.45
2022-09-07T07:14:39.604Z,4.32
2022-09-07T07:17:09.947Z,4.65
2022-09-07T07:19:38.314Z,4.60
2022-09-07T07:22:23.811Z,5.78
2022-09-07T07:24:57.127Z,5.88
2022-09-07T07:27:26.476Z,6.85
2022-09-07T07:29:54.861Z,6.45
2022-09-07T07:32:22.570Z,6.93
2022-09-07T07:34:50.465Z,7.97
2022-09-07T07:37:18.584Z,7.05
2022-09-07T07:42:36.229Z,7.90
2022-09-07T07:47:52.066Z,9.52
2022-09-07T07:50:35.278Z,8.85
2022-09-07T07:55:51.298Z,8.20
2022-09-07T07:58:21.460Z,9.27
2022-09-07T08:00:57.063Z,10.55
2022-09-07T08:03:26.817Z,10.20
2022-09-07T08:05:54.971Z,11.77
2022-09-07T08:08:24.137Z,12.18
2022-09-07T08:10:52.421Z,12.32
2022-09-07T08:13:22.684Z,12.35
2022-09-07T08:15:50.801Z,12.43
2022-09-07T08:18:18.957Z,13.32
2022-09-07T08:20:47.017Z,15.53
2022-09-07T08:23:15.336Z,15.70
2022-09-07T08:25:51.027Z,14.90
2022-09-07T08:28:18.828Z,15.53
2022-09-07T08:30:48.202Z,16.98
2022-09-07T08:33:16.532Z,16.25
2022-09-07T08:35:44.693Z,17.77
2022-09-07T08:38:12.769Z,18.20
2022-09-07T08:40:40.888Z,18.42
2022-09-07T08:43:13.983Z,17.42
2022-09-07T08:45:45.245Z,17.55
2022-09-07T08:48:18.926Z,17.95
2022-09-07T08:50:53.208Z,19.15
2022-09-07T08:53:21.440Z,20.10
2022-09-07T08:55:52.833Z,20.25
2022-09-07T08:58:47.720Z,20.50
2022-09-07T09:04:19.350Z,17.83
2022-09-07T09:06:55.747Z,17.43
2022-09-07T09:09:32.452Z,17.92
2022-09-07T09:12:09.419Z,16.25
2022-09-07T09:14:49.236Z,16.63
2022-09-07T09:17:24.883Z,15.85
2022-09-07T09:20:00.411Z,16.45
2022-09-07T09:22:28.540Z,15.70
2022-09-07T09:25:01.680Z,16.23
2022-09-07T09:27:29.721Z,14.98
2022-09-07T09:29:57.727Z,13.75
2022-09-07T09:32:37.841Z,11.95
2022-09-07T09:35:14.018Z,11.10
2022-09-07T09:37:46.971Z,10.35
2022-09-07T09:40:24.219Z,8.55
2022-09-07T09:43:03.580Z,8.38
2022-09-07T09:46:12.266Z,7.35
2022-09-07T09:48:33.462Z,7.57
2022-09-07T09:53:56.504Z,8.45
2022-09-07T09:56:37.286Z,7.90
2022-09-07T10:05:28.955Z,7.65
2022-09-07T10:07:59.077Z,7.28
2022-09-07T10:10:28.053Z,7.65
2022-09-07T10:12:56.916Z,8.70
2022-09-07T10:15:28.084Z,8.05
2022-09-07T10:17:55.756Z,8.43
2022-09-07T10:20:36.116Z,7.97
2022-09-07T10:23:07.225Z,8.60
2022-09-07T10:25:37.482Z,7.10
2022-09-07T10:28:17.690Z,7.70
2022-09-07T10:30:56.675Z,5.82
2022-09-07T10:33:28.798Z,6.13
2022-09-07T10:36:01.392Z,5.97
2022-09-07T10:38:38.404Z,5.50
2022-09-07T10:41:08.505Z,5.63
2022-09-07T10:43:43.558Z,6.53
2022-09-07T10:49:27.390Z,5.90
2022-09-07T10:52:03.426Z,5.60
2022-09-07T10:54:39.307Z,6.00
2022-09-07T10:57:28.390Z,5.13
2022-09-07T11:00:08.749Z,5.40
2022-09-07T11:05:55.167Z,5.43
2022-09-07T11:09:15.045Z,5.57
2022-09-07T11:14:17.536Z,5.90
2022-09-07T11:16:51.920Z,6.45
2022-09-07T11:19:37.746Z,6.20
2022-09-07T11:22:14.516Z,6.57
2022-09-07T11:27:49.040Z,8.77
2022-09-07T11:30:23.814Z,8.15
2022-09-07T11:32:59.884Z,9.10
2022-09-07T11:35:42.832Z,9.18
2022-09-07T11:38:26.663Z,8.50
2022-09-07T11:41:14.727Z,9.45
2022-09-07T11:43:47.488Z,8.52
2022-09-07T11:46:18.042Z,8.07
2022-09-07T11:48:48.696Z,8.95
2022-09-07T11:51:21.907Z,8.38
2022-09-07T11:53:53.510Z,7.97
2022-09-07T11:56:25.682Z,7.43
2022-09-07T11:59:06.691Z,6.83
2022-09-07T12:01:42.176Z,7.07
2022-09-07T12:04:26.147Z,6.32
2022-09-07T12:07:21.352Z,6.68
2022-09-07T12:10:17.014Z,7.03
2022-09-07T12:13:06.379Z,6.78
2022-09-07T12:15:42.967Z,6.23
2022-09-07T12:18:22.282Z,6.32
2022-09-07T12:20:50.788Z,6.13
2022-09-07T12:23:33.757Z,6.47
2022-09-07T12:26:49.492Z,6.63
2022-09-07T12:29:23.159Z,6.25
2022-09-07T12:31:58.647Z,6.03
2022-09-07T12:34:54.820Z,6.82
2022-09-07T12:37:42.666Z,6.63
2022-09-07T12:40:59.615Z,6.30
2022-09-07T12:43:50.002Z,6.55
2022-09-07T12:46:42.660Z,6.90
2022-09-07T12:49:19.835Z,6.78
2022-09-07T12:52:13.938Z,7.13
2022-09-07T12:54:59.682Z,6.70
2022-09-07T12:57:40.476Z,6.85
2022-09-07T13:00:16.319Z,6.22
2022-09-07T13:03:49.359Z,6.88
2022-09-07T13:06:04.364Z,6.30
2022-09-07T13:08:55.210Z,6.07
2022-09-07T13:11:35.638Z,6.90
2022-09-07T13:14:08.541Z,6.68
2022-09-07T13:20:13.416Z,6.90
2022-09-07T13:23:09.395Z,6.37
2022-09-07T13:25:48.665Z,6.60
2022-09-07T13:28:25.014Z,7.07
2022-09-07T13:31:02.078Z,7.10
2022-09-07T13:33:51.014Z,6.22
2022-09-07T13:36:40.228Z,7.50
2022-09-07T13:39:14.597Z,7.05
2022-09-07T13:41:45.067Z,6.40
2022-09-07T13:44:26.162Z,6.10
2022-09-07T13:47:20.248Z,6.68
2022-09-07T13:50:05.379Z,6.32
2022-09-07T13:52:45.014Z,6.43
2022-09-07T13:55:27.671Z,6.35
2022-09-07T13:58:07.895Z,5.55
2022-09-07T14:00:36.111Z,4.60
2022-09-07T14:03:06.681Z,5.40
2022-09-07T14:05:37.212Z,4.97
2022-09-07T14:08:06.163Z,5.38
2022-09-07T14:10:36.843Z,5.47
2022-09-07T14:13:09.006Z,4.63
2022-09-07T14:15:40.596Z,5.22
2022-09-07T14:18:13.358Z,4.72
2022-09-07T14:20:43.377Z,5.30
2022-09-07T14:23:22.012Z,5.30
2022-09-07T14:26:16.936Z,4.82
2022-09-07T14:28:46.908Z,5.22
2022-09-07T14:31:17.311Z,5.38
2022-09-07T14:33:53.636Z,6.05
2022-09-07T14:36:44.223Z,6.03
2022-09-07T14:39:15.062Z,5.93
2022-09-07T14:41:46.963Z,6.50
2022-09-07T14:44:28.840Z,5.68
2022-09-07T14:46:57.492Z,6.32
2022-09-07T14:49:25.605Z,5.80
2022-09-07T14:51:54.181Z,5.25
2022-09-07T14:54:22.816Z,4.82
2022-09-07T14:57:07.855Z,5.55
2022-09-07T14:59:41.343Z,4.53
2022-09-07T15:02:35.647Z,4.55
2022-09-07T15:05:34.382Z,4.32
2022-09-07T15:08:03.523Z,4.20
2022-09-07T15:10:41.608Z,5.10
2022-09-07T15:13:29.216Z,4.90
2022-09-07T15:16:03.331Z,4.00
2022-09-07T15:18:55.696Z,4.27
2022-09-07T15:21:27.324Z,4.50
2022-09-07T15:23:58.495Z,4.25
2022-09-07T15:29:21.569Z,4.63
2022-09-07T15:32:02.256Z,4.38
2022-09-07T15:34:32.217Z,4.85
2022-09-07T15:37:01.395Z,5.90
2022-09-07T15:39:31.336Z,5.27
2022-09-07T15:42:58.898Z,5.07
2022-09-07T15:44:50.362Z,4.78
2022-09-07T15:50:07.839Z,5.72
2022-09-07T15:52:35.579Z,4.70
2022-09-07T15:55:03.279Z,5.40
2022-09-07T15:57:50.163Z,5.32
2022-09-07T16:00:21.417Z,6.45
2022-09-07T16:03:06.272Z,6.82
2022-09-07T16:05:35.722Z,6.07
2022-09-07T16:10:54.256Z,5.28
2022-09-07T16:13:24.389Z,5.55
2022-09-07T16:15:54.052Z,5.78
2022-09-07T16:18:22.060Z,5.88
2022-09-07T16:20:52.721Z,6.33
2022-09-07T16:23:20.954Z,6.00
2022-09-07T16:26:07.483Z,6.23
2022-09-07T16:28:36.028Z,6.80
2022-09-07T16:31:08.902Z,6.70
2022-09-07T16:33:37.522Z,6.95
2022-09-07T16:36:07.582Z,6.15
2022-09-07T16:38:51.384Z,6.63
2022-09-07T16:41:21.223Z,6.32
2022-09-07T16:43:49.975Z,5.40
2022-09-07T16:46:20.185Z,6.22
2022-09-07T16:48:49.691Z,5.30
2022-09-07T16:51:20.661Z,5.13
2022-09-07T16:53:48.862Z,5.20
2022-09-07T16:56:17.754Z,5.25
2022-09-07T16:58:48.284Z,4.40
2022-09-07T17:01:17.825Z,6.25
2022-09-07T17:03:50.460Z,6.25
2022-09-07T17:06:20.427Z,5.97
2022-09-07T17:08:48.817Z,4.35
2022-09-07T17:11:18.123Z,5.35
2022-09-07T17:13:46.453Z,5.40
2022-09-07T17:16:16.685Z,5.30
2022-09-07T17:21:35.343Z,4.47
2022-09-07T17:24:04.554Z,4.27
2022-09-07T17:26:33.523Z,3.33
2022-09-07T17:29:01.605Z,3.33
2022-09-07T17:34:21.557Z,3.45
2022-09-07T17:36:51.505Z,3.70
2022-09-07T17:39:19.887Z,3.40
2022-09-07T17:41:48.396Z,4.07
2022-09-07T17:44:16.536Z,4.30
2022-09-07T17:46:44.409Z,4.63
2022-09-07T17:49:14.701Z,3.83
2022-09-07T17:51:42.631Z,5.28
2022-09-07T17:54:13.260Z,4.45
2022-09-07T17:56:41.949Z,5.20
2022-09-07T18:01:58.243Z,4.93
2022-09-07T18:04:27.182Z,5.68
2022-09-07T18:06:55.804Z,4.45
2022-09-07T18:09:25.045Z,5.15
2022-09-07T18:11:52.812Z,4.90
2022-09-07T18:14:21.096Z,4.32
2022-09-07T18:16:50.286Z,5.40
2022-09-07T18:20:19.862Z,6.07
2022-09-07T18:22:48.339Z,5.10
2022-09-07T18:25:19.789Z,4.50
2022-09-07T18:29:03.047Z,5.40
2022-09-07T18:30:38.300Z,5.07
2022-09-07T18:33:06.596Z,5.78
2022-09-07T18:35:34.346Z,5.20
2022-09-07T18:38:02.179Z,6.18
2022-09-07T18:40:33.404Z,7.03
2022-09-07T18:43:04.779Z,7.07
2022-09-07T18:45:32.546Z,7.80
2022-09-07T18:48:00.999Z,5.40
2022-09-07T18:50:28.726Z,6.28
2022-09-07T18:53:01.619Z,7.15
2022-09-07T18:55:43.655Z,7.25
2022-09-07T18:58:12.244Z,6.93
2022-09-07T19:00:45.029Z,7.43
2022-09-07T19:03:13.061Z,7.13
2022-09-07T19:05:55.934Z,8.00
2022-09-07T19:08:23.703Z,7.15
2022-09-07T19:10:52.973Z,5.78
2022-09-07T19:13:21.380Z,6.05
2022-09-07T19:15:48.996Z,7.35
2022-09-07T19:18:17.943Z,8.60
2022-09-07T19:20:45.570Z,6.75
2022-09-07T19:23:13.486Z,6.68
2022-09-07T19:25:42.149Z,8.13
2022-09-07T19:28:11.231Z,9.55
2022-09-07T19:30:38.818Z,9.20
2022-09-07T19:33:10.418Z,9.05
2022-09-07T19:35:37.987Z,9.57
2022-09-07T19:38:05.730Z,9.40
2022-09-07T19:40:33.334Z,8.73
2022-09-07T19:43:02.905Z,7.72
2022-09-07T19:45:32.183Z,9.65
2022-09-07T19:47:59.774Z,8.50
2022-09-07T19:50:27.906Z,9.48
2022-09-07T19:52:56.678Z,10.70
2022-09-07T19:55:25.602Z,9.70
2022-09-07T19:57:53.807Z,9.53
2022-09-07T20:00:22.575Z,9.30
2022-09-07T20:02:52.239Z,10.50
2022-09-07T20:05:20.051Z,11.02
2022-09-07T20:07:47.667Z,11.30
2022-09-07T20:10:15.645Z,9.80
2022-09-07T20:12:43.263Z,9.77
2022-09-07T20:15:11.430Z,9.48
2022-09-07T20:17:39.581Z,11.43
2022-09-07T20:20:10.742Z,9.88
2022-09-07T20:22:39.089Z,10.87
2022-09-07T20:25:12.545Z,10.68
2022-09-07T20:27:41.621Z,9.95
2022-09-07T20:30:10.398Z,9.10
2022-09-07T20:32:37.947Z,9.52
2022-09-07T20:35:06.328Z,7.95
2022-09-07T20:37:35.879Z,10.40
2022-09-07T20:40:04.306Z,10.23
2022-09-07T20:42:32.239Z,9.75
2022-09-07T20:44:59.806Z,9.27
2022-09-07T20:47:28.468Z,9.33
2022-09-07T20:49:56.214Z,9.05
2022-09-07T20:52:24.398Z,8.60
2022-09-07T20:54:53.554Z,9.70
2022-09-07T20:57:21.202Z,10.50
2022-09-07T20:59:49.148Z,10.87
2022-09-07T21:02:17.216Z,9.07
2022-09-07T21:04:46.042Z,10.90
2022-09-07T21:07:13.792Z,9.50
2022-09-07T21:09:42.330Z,10.52
2022-09-07T21:12:11.242Z,11.02
2022-09-07T21:14:38.859Z,10.82
2022-09-07T21:17:06.668Z,10.77
2022-09-07T21:19:34.346Z,10.30
2022-09-07T21:22:01.922Z,10.93
2022-09-07T21:24:29.615Z,11.50
2022-09-07T21:26:57.242Z,12.40
2022-09-07T21:29:28.178Z,12.52
2022-09-07T21:31:56.166Z,13.70
2022-09-07T21:34:24.511Z,12.70
2022-09-07T21:36:52.935Z,11.68
2022-09-07T21:39:21.903Z,11.02
2022-09-07T21:41:50.126Z,11.13
2022-09-07T21:44:17.871Z,12.25
2022-09-07T21:46:47.731Z,11.10
2022-09-07T21:49:15.694Z,11.25
2022-09-07T21:51:43.322Z,11.02
2022-09-07T21:54:10.955Z,11.65
2022-09-07T21:56:41.079Z,11.82
2022-09-07T21:59:12.345Z,12.63
2022-09-07T22:01:40.780Z,12.55
2022-09-07T22:04:09.948Z,11.50
2022-09-07T22:06:37.737Z,12.60
2022-09-07T22:09:06.082Z,13.38
2022-09-07T22:11:34.374Z,12.98
2022-09-07T22:14:03.885Z,11.27
2022-09-07T22:16:32.535Z,12.25
2022-09-07T22:19:00.453Z,12.63
2022-09-07T22:21:30.377Z,11.05
2022-09-07T22:23:59.139Z,11.37
2022-09-07T22:26:29.774Z,13.57
2022-09-07T22:28:58.778Z,13.90
2022-09-07T22:31:28.483Z,14.43
2022-09-07T22:33:57.292Z,13.93
2022-09-07T22:36:27.968Z,13.23
2022-09-07T22:38:58.011Z,12.35
2022-09-07T22:41:28.192Z,13.43
2022-09-07T22:43:56.063Z,14.30
2022-09-07T22:46:25.580Z,14.53
2022-09-07T22:48:54.383Z,13.93
2022-09-07T22:51:22.434Z,15.02
2022-09-07T22:53:50.141Z,13.98
2022-09-07T22:56:21.311Z,15.03
2022-09-07T22:58:50.647Z,14.88
2022-09-07T23:01:18.523Z,16.77
2022-09-07T23:03:46.733Z,16.80
2022-09-07T23:06:25.169Z,16.77
2022-09-07T23:08:54.210Z,15.57
2022-09-07T23:11:24.280Z,15.60
2022-09-07T23:13:53.144Z,17.20
2022-09-07T23:16:21.962Z,18.27
2022-09-07T23:18:49.918Z,19.52
2022-09-07T23:21:18.006Z,20.63
2022-09-07T23:23:50.148Z,19.20
2022-09-07T23:26:17.926Z,19.80
2022-09-07T23:28:52.335Z,19.30
2022-09-07T23:31:20.098Z,20.25
2022-09-07T23:33:47.962Z,19.98
2022-09-07T23:36:16.547Z,20.42
2022-09-07T23:38:44.337Z,21.58
2022-09-07T23:41:13.923Z,21.23
2022-09-07T23:43:42.782Z,20.85
2022-09-07T23:46:13.175Z,19.00
2022-09-07T23:48:40.912Z,18.13
2022-09-07T23:51:09.078Z,18.23
2022-09-07T23:53:36.784Z,18.05
2022-09-07T23:56:05.216Z,17.10
2022-09-07T23:58:33.059Z,18.17
